createdAt,value
2022-10-25T00:05:24.726Z,0
2022-10-25T00:11:24.752Z,0
2022-10-25T00:17:24.724Z,0
2022-10-25T00:23:24.709Z,0
2022-10-25T00:29:24.755Z,0
2022-10-25T00:35:24.733Z,0
2022-10-25T00:41:24.707Z,0
2022-10-25T00:47:24.760Z,0
2022-10-25T00:53:24.737Z,0
2022-10-25T00:59:24.730Z,0
2022-10-25T01:05:24.739Z,0
2022-10-25T01:11:24.770Z,0
2022-10-25T01:17:24.786Z,0
2022-10-25T01:23:24.785Z,0
2022-10-25T01:29:24.756Z,0
2022-10-25T01:35:24.735Z,0
2022-10-25T01:41:24.751Z,0
2022-10-25T01:47:24.750Z,0
2022-10-25T01:53:24.731Z,0
2022-10-25T01:59:24.784Z,0
2022-10-25T02:05:24.764Z,0
2022-10-25T02:11:24.739Z,0
2022-10-25T02:17:24.736Z,0
2022-10-25T02:23:24.741Z,0
2022-10-25T02:29:24.724Z,0
2022-10-25T02:35:24.780Z,0
2022-10-25T02:41:24.742Z,0
2022-10-25T02:47:24.742Z,0
2022-10-25T02:53:24.752Z,0
2022-10-25T02:59:24.719Z,0
2022-10-25T03:05:24.744Z,0
2022-10-25T03:11:24.774Z,0
2022-10-25T03:17:24.715Z,0
2022-10-25T03:23:24.745Z,0
2022-10-25T03:29:24.760Z,0
2022-10-25T03:35:24.739Z,0
2022-10-25T03:41:24.740Z,0
2022-10-25T03:47:24.789Z,0
2022-10-25T03:53:24.778Z,0
2022-10-25T03:59:24.732Z,0
2022-10-25T04:05:24.814Z,0
2022-10-25T04:11:24.748Z,0
2022-10-25T04:17:24.734Z,0
2022-10-25T04:23:24.770Z,0
2022-10-25T04:29:24.742Z,0
2022-10-25T04:35:24.737Z,0
2022-10-25T04:41:24.756Z,0
2022-10-25T04:47:24.746Z,0
2022-10-25T04:53:24.749Z,0
2022-10-25T04:59:24.770Z,0
2022-10-25T05:05:24.746Z,0
2022-10-25T05:11:24.816Z,0
2022-10-25T05:17:24.758Z,0
2022-10-25T05:23:24.755Z,0
2022-10-25T05:29:24.736Z,0
2022-10-25T05:35:24.837Z,0
2022-10-25T05:41:24.777Z,0
2022-10-25T05:47:24.738Z,0
2022-10-25T05:53:24.761Z,0
2022-10-25T05:59:24.762Z,0
2022-10-25T06:05:24.750Z,0
2022-10-25T06:11:24.791Z,0
2022-10-25T06:17:24.752Z,0
2022-10-25T06:23:24.767Z,0
2022-10-25T06:29:24.773Z,0
2022-10-25T06:35:24.738Z,0
2022-10-25T06:41:24.754Z,0
2022-10-25T06:47:24.774Z,0
2022-10-25T06:53:24.757Z,0
2022-10-25T06:59:24.801Z,0
2022-10-25T07:05:24.758Z,0
2022-10-25T07:11:24.752Z,0
2022-10-25T07:17:24.739Z,0
2022-10-25T07:23:24.775Z,0
2022-10-25T07:29:24.751Z,0
2022-10-25T07:35:24.731Z,0
2022-10-25T07:41:24.767Z,0
2022-10-25T07:47:24.747Z,0
2022-10-25T07:53:24.734Z,0.3
2022-10-25T07:59:24.782Z,0.8
2022-10-25T08:05:24.769Z,0.8
2022-10-25T08:11:24.740Z,1.2
2022-10-25T08:17:24.758Z,1.2
2022-10-25T08:23:24.760Z,3.4
2022-10-25T08:29:24.766Z,2.8
2022-10-25T08:35:24.790Z,2.1
2022-10-25T08:41:24.786Z,1.8
2022-10-25T08:47:24.736Z,1.7
2022-10-25T08:53:24.779Z,2.3
2022-10-25T08:59:24.771Z,2.8
2022-10-25T09:05:24.835Z,2.3
2022-10-25T09:11:24.782Z,3
2022-10-25T09:17:24.841Z,3.2
2022-10-25T09:23:24.769Z,3.3
2022-10-25T09:29:24.815Z,2.7
2022-10-25T09:35:24.779Z,3
2022-10-25T09:41:25.135Z,2.8
2022-10-25T09:47:25.020Z,3
2022-10-25T09:53:24.759Z,2.9
2022-10-25T09:59:24.783Z,3.3
2022-10-25T10:05:24.801Z,3.8
2022-10-25T10:11:24.756Z,3.8
2022-10-25T10:17:24.779Z,3.6
2022-10-25T10:23:24.814Z,3.9
2022-10-25T10:29:24.776Z,3.6
2022-10-25T10:35:24.773Z,3.7
2022-10-25T10:41:24.826Z,3.6
2022-10-25T10:47:24.788Z,4.1
2022-10-25T10:53:24.787Z,4.4
2022-10-25T10:59:24.823Z,4.5
2022-10-25T11:05:24.805Z,4.5
2022-10-25T11:11:24.817Z,4.4
2022-10-25T11:17:24.910Z,5
2022-10-25T11:23:24.789Z,5
2022-10-25T11:29:24.792Z,5.1
2022-10-25T11:35:24.912Z,4.8
2022-10-25T11:41:24.814Z,4.9
2022-10-25T11:47:24.790Z,4.7
2022-10-25T11:53:24.939Z,5.1
2022-10-25T11:59:24.791Z,5.1
2022-10-25T12:05:24.838Z,4.9
2022-10-25T12:11:24.937Z,5.4
2022-10-25T12:17:24.824Z,5.4
2022-10-25T12:23:24.806Z,5.7
2022-10-25T12:29:24.932Z,5.5
2022-10-25T12:35:24.844Z,5.4
2022-10-25T12:41:24.802Z,5.3
2022-10-25T12:47:24.911Z,5.2
2022-10-25T12:53:24.822Z,4.8
2022-10-25T12:59:24.784Z,5.3
2022-10-25T13:05:24.939Z,5.5
2022-10-25T13:11:24.827Z,5.9
2022-10-25T13:17:24.817Z,4.7
2022-10-25T13:23:24.906Z,5.5
2022-10-25T13:29:24.796Z,6.4
2022-10-25T13:35:24.835Z,5.8
2022-10-25T13:41:24.971Z,5.5
2022-10-25T13:47:24.844Z,5
2022-10-25T13:53:24.813Z,5.2
2022-10-25T13:59:24.849Z,5.5
2022-10-25T14:05:24.833Z,5.3
2022-10-25T14:11:24.801Z,5.8
2022-10-25T14:17:24.860Z,5.7
2022-10-25T14:23:24.839Z,6.3
2022-10-25T14:29:24.800Z,6.5
2022-10-25T14:35:24.898Z,7
2022-10-25T14:41:24.835Z,6.1
2022-10-25T14:47:24.825Z,5.8
2022-10-25T14:53:24.883Z,6.1
2022-10-25T14:59:24.823Z,5.6
2022-10-25T15:05:24.806Z,5
2022-10-25T15:11:24.869Z,5.6
2022-10-25T15:17:24.843Z,5.1
2022-10-25T15:23:24.853Z,5.5
2022-10-25T15:29:24.851Z,5.3
2022-10-25T15:35:24.819Z,5.5
2022-10-25T15:41:24.851Z,5.4
2022-10-25T15:47:24.843Z,5.2
2022-10-25T15:53:24.844Z,4.8
2022-10-25T15:59:24.822Z,4.8
2022-10-25T16:05:24.867Z,4.8
2022-10-25T16:11:24.926Z,4.3
2022-10-25T16:17:24.823Z,4
2022-10-25T16:23:24.892Z,3.6
2022-10-25T16:29:24.835Z,3.6
2022-10-25T16:35:24.828Z,3.4
2022-10-25T16:41:24.871Z,3.4
2022-10-25T16:47:24.836Z,3.2
2022-10-25T16:53:24.845Z,2.9
2022-10-25T16:59:24.855Z,2.8
2022-10-25T17:05:24.840Z,2.6
2022-10-25T17:11:24.820Z,2.6
2022-10-25T17:17:24.871Z,2.3
2022-10-25T17:23:24.829Z,2.3
2022-10-25T17:29:24.846Z,2.3
2022-10-25T17:35:29.350Z,1.8
2022-10-25T17:41:24.820Z,1.5
2022-10-25T17:47:24.831Z,1.3
2022-10-25T17:53:24.867Z,1
2022-10-25T17:59:24.853Z,1
2022-10-25T18:05:24.837Z,0.9
2022-10-25T18:11:24.892Z,0.6
2022-10-25T18:17:24.845Z,0.5
2022-10-25T18:23:24.844Z,0.4
2022-10-25T18:29:24.888Z,0.3
2022-10-25T18:35:24.844Z,0.2
2022-10-25T18:41:24.834Z,0.2
2022-10-25T18:47:24.892Z,0.1
2022-10-25T18:53:24.860Z,0.3
2022-10-25T18:59:24.855Z,0.2
2022-10-25T19:05:24.881Z,0
2022-10-25T19:11:24.866Z,0
2022-10-25T19:17:24.863Z,0
2022-10-25T19:23:24.883Z,0
2022-10-25T19:29:24.864Z,0
2022-10-25T19:35:24.852Z,0
2022-10-25T19:41:24.888Z,0
2022-10-25T19:47:24.849Z,0
2022-10-25T19:53:24.856Z,0
2022-10-25T19:59:24.899Z,0
2022-10-25T20:05:24.860Z,0
2022-10-25T20:11:24.891Z,0
2022-10-25T20:17:29.899Z,0
2022-10-25T20:23:24.877Z,0
2022-10-25T20:29:24.852Z,0
2022-10-25T20:35:27.039Z,0
2022-10-25T20:41:24.904Z,0
2022-10-25T20:47:24.877Z,0
2022-10-25T20:53:24.900Z,0
2022-10-25T20:59:24.857Z,0
2022-10-25T21:05:24.864Z,0
2022-10-25T21:11:24.910Z,0
2022-10-25T21:17:24.853Z,0
2022-10-25T21:23:24.857Z,0
2022-10-25T21:29:24.865Z,0
2022-10-25T21:35:24.850Z,0
2022-10-25T21:41:24.862Z,0
2022-10-25T21:47:24.892Z,0
2022-10-25T21:53:24.869Z,0
2022-10-25T21:59:24.851Z,0
2022-10-25T22:05:24.878Z,0
2022-10-25T22:11:24.946Z,0
2022-10-25T22:17:24.869Z,0
2022-10-25T22:23:24.884Z,0
2022-10-25T22:29:24.938Z,0
2022-10-25T22:35:24.874Z,0
2022-10-25T22:41:24.900Z,0
2022-10-25T22:47:24.867Z,0
2022-10-25T22:53:24.859Z,0
2022-10-25T22:59:24.916Z,0
2022-10-25T23:05:24.877Z,0
2022-10-25T23:11:24.861Z,0
2022-10-25T23:17:24.888Z,0
2022-10-25T23:23:24.879Z,0
2022-10-25T23:29:24.877Z,0
2022-10-25T23:35:24.895Z,0
2022-10-25T23:41:24.882Z,0
2022-10-25T23:47:24.867Z,0
2022-10-25T23:53:24.884Z,0
2022-10-25T23:59:24.876Z,0
